Time;durP1;ratioP1;P1;durP2;ratioP2;P2;SDS_P1;SDS_P2;PMS_P1;PMS_P2;Temp;Humidity;BMP_temperature;BMP_pressure;BME280_temperature;BME280_humidity;BME280_pressure;Samples;Min_cycle;Max_cycle;Signal;HPM_P1;HPM_P2
2021/09/04 00:01:34;;;;;;;9.55;5.03;;;;;;;10.45;82.88;97951.59;1609759;88;21033;-83
2021/09/04 00:04:01;;;;;;;7.05;4.30;;;;;;;10.45;82.11;97949.39;1626142;88;21516;-83
2021/09/04 00:06:27;;;;;;;6.30;4.30;;;;;;;10.41;82.21;97945.94;1632777;88;21033;-82
2021/09/04 00:08:54;;;;;;;7.03;4.55;;;;;;;10.38;81.86;97946.05;1624690;88;21064;-82
2021/09/04 00:11:21;;;;;;;7.65;4.65;;;;;;;10.33;82.33;97944.84;1631777;88;21080;-82
2021/09/04 00:13:47;;;;;;;6.25;4.15;;;;;;;10.32;82.18;97949.73;1633352;88;21033;-81
2021/09/04 00:16:15;;;;;;;7.10;4.83;;;;;;;10.25;82.84;97942.42;1631969;88;21544;-82
2021/09/04 00:18:41;;;;;;;5.72;4.47;;;;;;;10.24;81.94;97945.99;1633576;88;21009;-82
2021/09/04 00:21:10;;;;;;;6.55;4.67;;;;;;;10.24;81.77;97945.11;1625756;87;21177;-83
2021/09/04 00:23:36;;;;;;;6.25;4.42;;;;;;;10.25;81.50;97942.87;1607426;89;21088;-82
2021/09/04 00:26:03;;;;;;;6.92;4.78;;;;;;;10.22;81.47;97944.30;1607883;88;21009;-83
2021/09/04 00:28:29;;;;;;;7.15;5.30;;;;;;;10.15;81.56;97951.55;1607644;89;21071;-82
2021/09/04 00:30:56;;;;;;;6.37;4.53;;;;;;;10.10;81.59;97949.05;1609280;88;21473;-83
2021/09/04 00:33:22;;;;;;;9.80;4.75;;;;;;;10.05;82.30;97946.95;1615902;88;20961;-83
2021/09/04 00:35:49;;;;;;;6.60;4.75;;;;;;;10.00;81.98;97943.57;1621705;88;21517;-83
2021/09/04 00:38:16;;;;;;;8.83;5.10;;;;;;;9.92;83.47;97941.14;1626912;88;21060;-83
2021/09/04 00:40:42;;;;;;;8.88;5.00;;;;;;;9.94;81.94;97946.40;1573977;91;21085;-83
2021/09/04 00:43:09;;;;;;;8.58;5.03;;;;;;;9.91;82.20;97935.44;1606252;89;20982;-83
2021/09/04 00:45:36;;;;;;;8.73;5.35;;;;;;;9.88;83.27;97936.39;1573922;91;21156;-83
2021/09/04 00:48:05;;;;;;;6.30;4.50;;;;;;;9.88;82.71;97939.48;1626703;88;21025;-83
2021/09/04 00:50:35;;;;;;;7.12;5.17;;;;;;;9.87;81.69;97945.70;1633283;88;21096;-83
2021/09/04 00:53:04;;;;;;;7.90;4.72;;;;;;;9.85;81.82;97947.05;1633292;88;21060;-83
2021/09/04 00:55:31;;;;;;;7.72;5.05;;;;;;;9.83;82.96;97941.39;1623234;88;21069;-83
2021/09/04 00:57:59;;;;;;;6.55;4.20;;;;;;;9.80;82.48;97946.31;1607278;89;21036;-82
2021/09/04 01:00:28;;;;;;;7.03;4.53;;;;;;;9.75;82.72;97942.48;1609870;88;21033;-82
2021/09/04 01:02:55;;;;;;;7.90;4.30;;;;;;;9.72;84.22;97946.52;1623395;88;21057;-82
2021/09/04 01:05:24;;;;;;;7.97;4.37;;;;;;;9.72;83.66;97941.23;1628116;88;21021;-83
2021/09/04 01:07:51;;;;;;;7.50;4.70;;;;;;;9.73;83.70;97944.31;1607819;89;21685;-83
2021/09/04 01:10:19;;;;;;;6.50;3.90;;;;;;;9.76;83.78;97940.72;1607256;89;21025;-83
2021/09/04 01:12:46;;;;;;;5.60;4.22;;;;;;;9.75;84.15;97942.92;1622104;88;20981;-83
2021/09/04 01:15:13;;;;;;;5.33;3.70;;;;;;;9.77;83.35;97945.94;1607509;89;21446;-83
2021/09/04 01:17:41;;;;;;;8.28;4.67;;;;;;;9.75;83.64;97938.95;1591208;89;21087;-83
2021/09/04 01:20:09;;;;;;;4.75;3.72;;;;;;;9.76;83.80;97940.72;1607318;89;21048;-83
2021/09/04 01:22:36;;;;;;;6.20;3.62;;;;;;;9.76;83.90;97940.25;1607557;88;21049;-83
2021/09/04 01:25:07;;;;;;;6.12;3.83;;;;;;;9.83;83.21;97948.89;1620551;87;21061;-83
2021/09/04 01:27:38;;;;;;;5.28;3.77;;;;;;;9.86;83.24;97952.79;1622529;87;21041;-83
2021/09/04 01:30:07;;;;;;;6.05;3.62;;;;;;;9.88;82.92;97944.34;1611656;88;21006;-82
2021/09/04 01:32:34;;;;;;;6.40;4.05;;;;;;;9.83;83.25;97953.30;1609900;88;21013;-82
2021/09/04 01:35:10;;;;;;;5.50;4.03;;;;;;;9.81;82.68;97948.08;1598928;88;21041;-82
2021/09/04 01:37:38;;;;;;;8.60;5.22;;;;;;;9.74;83.12;97951.34;1618777;88;21132;-83
2021/09/04 01:40:11;;;;;;;5.70;4.22;;;;;;;9.72;83.15;97946.52;1618990;88;21037;-83
2021/09/04 01:42:39;;;;;;;6.17;4.05;;;;;;;9.69;83.13;97956.33;1605258;88;21014;-83
2021/09/04 01:45:08;;;;;;;6.83;3.77;;;;;;;9.68;82.62;97950.63;1596602;90;21040;-82
2021/09/04 01:47:34;;;;;;;5.22;3.70;;;;;;;9.63;82.91;97946.77;1596606;90;21128;-83
2021/09/04 01:50:02;;;;;;;7.10;4.50;;;;;;;9.60;82.30;97951.69;1607450;88;21002;-83
2021/09/04 01:52:29;;;;;;;7.58;4.17;;;;;;;9.58;82.51;97953.52;1603581;88;20978;-82
2021/09/04 01:54:55;;;;;;;7.15;4.53;;;;;;;9.55;82.38;97950.94;1619201;88;21045;-82
2021/09/04 01:57:22;;;;;;;7.95;4.40;;;;;;;9.56;81.98;97950.06;1622575;88;21525;-82
2021/09/04 01:59:49;;;;;;;7.20;4.00;;;;;;;9.51;82.82;97940.05;1622232;88;21443;-82
2021/09/04 02:02:16;;;;;;;6.72;4.83;;;;;;;9.47;83.17;97943.20;1621079;88;21004;-83
2021/09/04 02:04:43;;;;;;;6.30;4.30;;;;;;;9.44;82.79;97946.39;1618725;87;20982;-83
2021/09/04 02:07:10;;;;;;;6.00;4.12;;;;;;;9.40;82.77;97940.77;1627238;88;21011;-83
2021/09/04 02:09:36;;;;;;;8.60;4.85;;;;;;;9.36;83.77;97944.83;1630131;87;22114;-83
2021/09/04 02:12:03;;;;;;;6.95;3.85;;;;;;;9.34;83.38;97940.48;1631251;88;20989;-83
2021/09/04 02:14:29;;;;;;;7.78;4.12;;;;;;;9.34;83.64;97943.13;1629480;87;21441;-83
2021/09/04 02:16:57;;;;;;;5.78;4.42;;;;;;;9.32;83.39;97933.91;1629039;88;21034;-83
2021/09/04 02:19:24;;;;;;;8.30;4.78;;;;;;;9.32;83.73;97935.23;1621173;88;21014;-83
2021/09/04 02:21:52;;;;;;;5.33;3.80;;;;;;;9.32;83.52;97935.23;1622202;88;21045;-82
2021/09/04 02:24:20;;;;;;;7.00;4.17;;;;;;;9.35;83.77;97931.64;1604861;87;21510;-83
2021/09/04 02:26:47;;;;;;;8.95;3.72;;;;;;;9.41;83.34;97930.59;1596702;90;21095;-83
2021/09/04 02:29:13;;;;;;;5.42;3.87;;;;;;;9.43;83.19;97930.11;1596768;90;21041;-83
2021/09/04 02:31:41;;;;;;;5.72;3.52;;;;;;;9.46;82.93;97923.41;1613447;88;21144;-81
2021/09/04 02:34:09;;;;;;;6.62;3.52;;;;;;;9.46;83.70;97920.31;1596862;90;21002;-82
2021/09/04 02:36:38;;;;;;;11.35;3.77;;;;;;;9.52;83.34;97924.59;1596767;90;21014;-82
2021/09/04 02:39:06;;;;;;;6.58;3.80;;;;;;;9.54;83.33;97924.08;1604057;88;20990;-82
2021/09/04 02:41:34;;;;;;;5.22;3.33;;;;;;;9.58;82.77;97921.77;1609907;88;21468;-82
2021/09/04 02:44:00;;;;;;;4.47;3.22;;;;;;;9.63;82.88;97921.63;1622442;88;21053;-83
2021/09/04 02:46:28;;;;;;;6.47;3.62;;;;;;;9.67;82.81;97916.67;1616769;87;20998;-83
2021/09/04 02:48:54;;;;;;;4.08;3.00;;;;;;;9.69;82.88;97918.84;1621112;88;21058;-83
2021/09/04 02:51:21;;;;;;;6.45;3.55;;;;;;;9.76;82.88;97916.42;1612023;88;21072;-83
2021/09/04 02:53:48;;;;;;;7.53;3.70;;;;;;;9.85;82.67;97925.03;1622747;88;21071;-83
2021/09/04 02:56:16;;;;;;;11.45;3.70;;;;;;;9.86;82.46;97918.82;1629152;87;20991;-84
2021/09/04 02:58:44;;;;;;;6.28;4.03;;;;;;;9.89;82.35;97923.56;1608002;88;21140;-83
2021/09/04 03:01:11;;;;;;;5.80;3.55;;;;;;;9.89;81.94;97921.39;1625494;88;21038;-84
2021/09/04 03:03:37;;;;;;;5.83;3.72;;;;;;;9.89;81.94;97918.75;1607644;87;21052;-84
2021/09/04 03:06:05;;;;;;;5.10;3.42;;;;;;;9.89;81.57;97915.63;1605464;89;21098;-84
2021/09/04 03:08:33;;;;;;;6.53;4.35;;;;;;;9.89;81.53;97914.30;1622061;88;21431;-84
2021/09/04 03:11:05;;;;;;;6.40;4.47;;;;;;;9.82;82.00;97918.48;1627820;88;21467;-83
2021/09/04 03:13:33;;;;;;;6.05;3.55;;;;;;;9.76;81.88;97913.78;1606484;88;21135;-83
2021/09/04 03:15:59;;;;;;;7.97;4.12;;;;;;;9.73;81.75;97911.68;1606710;88;21049;-83
2021/09/04 03:18:26;;;;;;;7.17;4.28;;;;;;;9.69;81.31;97912.67;1629948;88;21014;-83
2021/09/04 03:20:54;;;;;;;7.45;3.90;;;;;;;9.62;81.28;97908.88;1623521;88;21454;-83
2021/09/04 03:23:22;;;;;;;6.85;4.08;;;;;;;9.60;81.06;97909.35;1631135;88;21128;-83
2021/09/04 03:25:49;;;;;;;7.12;4.30;;;;;;;9.54;81.40;97904.23;1622679;86;21020;-83
2021/09/04 03:28:16;;;;;;;6.10;4.15;;;;;;;9.48;82.18;97908.38;1653102;87;21058;-83
2021/09/04 03:30:43;;;;;;;6.42;4.53;;;;;;;9.44;82.92;97904.95;1653300;87;21397;-83
2021/09/04 03:33:10;;;;;;;5.30;4.08;;;;;;;9.42;81.79;97907.22;1638100;87;21022;-84
2021/09/04 03:35:37;;;;;;;7.55;3.95;;;;;;;9.42;81.83;97900.14;1640738;86;21019;-83
2021/09/04 03:38:03;;;;;;;7.40;4.47;;;;;;;9.42;82.06;97894.84;1667131;86;21422;-83
2021/09/04 03:40:32;;;;;;;9.10;4.90;;;;;;;9.43;81.31;97891.77;1667097;86;21020;-83
2021/09/04 03:42:59;;;;;;;8.70;4.12;;;;;;;9.35;81.12;97890.64;1652152;85;21112;-83
2021/09/04 03:45:27;;;;;;;5.78;4.05;;;;;;;9.30;81.23;97884.61;1658599;86;21024;-83
2021/09/04 03:47:54;;;;;;;8.23;4.50;;;;;;;9.23;81.81;97888.71;1653580;86;20997;-83
2021/09/04 03:50:21;;;;;;;6.97;4.60;;;;;;;9.19;81.41;97892.38;1666939;86;21082;-83
2021/09/04 03:52:49;;;;;;;9.20;4.87;;;;;;;9.13;81.53;97892.50;1639459;87;21075;-83
2021/09/04 03:55:15;;;;;;;8.65;4.50;;;;;;;9.08;81.94;97897.92;1650299;86;21088;-83
2021/09/04 03:57:42;;;;;;;6.40;4.40;;;;;;;9.06;81.72;97897.07;1667178;86;21434;-83
2021/09/04 04:00:10;;;;;;;8.93;4.80;;;;;;;9.04;81.88;97900.22;1653205;86;21026;-83
2021/09/04 04:02:40;;;;;;;7.50;4.62;;;;;;;9.01;81.73;97900.76;1661661;86;21005;-83
2021/09/04 04:05:09;;;;;;;5.67;4.33;;;;;;;9.00;82.51;97914.41;1653290;87;21042;-83
2021/09/04 04:07:35;;;;;;;8.88;4.70;;;;;;;9.01;82.49;97914.83;1652116;87;21063;-84
2021/09/04 04:10:04;;;;;;;8.68;4.30;;;;;;;9.01;82.25;97918.79;1650440;87;21010;-83
2021/09/04 04:12:30;;;;;;;7.62;4.72;;;;;;;9.00;84.38;97914.41;1652415;87;21130;-83
2021/09/04 04:14:57;;;;;;;7.85;4.22;;;;;;;9.01;83.13;97910.86;1635303;87;21052;-83
2021/09/04 04:17:25;;;;;;;5.22;4.20;;;;;;;9.02;82.69;97911.30;1636138;87;21006;-83
2021/09/04 04:19:54;;;;;;;7.45;4.58;;;;;;;9.04;82.82;97907.27;1652942;87;21043;-82
2021/09/04 04:22:20;;;;;;;6.37;4.78;;;;;;;9.06;82.82;97905.00;1653142;87;21036;-83
2021/09/04 04:24:48;;;;;;;8.98;4.67;;;;;;;9.08;82.88;97902.33;1652444;87;21083;-83
2021/09/04 04:27:15;;;;;;;9.70;4.50;;;;;;;9.09;82.80;97904.94;1641064;86;21012;-83
2021/09/04 04:29:42;;;;;;;7.60;4.62;;;;;;;9.07;82.47;97909.41;1640115;87;21092;-82
2021/09/04 04:32:09;;;;;;;5.65;4.70;;;;;;;9.05;82.80;97905.92;1650863;86;20977;-83
2021/09/04 04:34:37;;;;;;;7.30;4.87;;;;;;;9.07;83.46;97907.20;1638431;87;21484;-82
2021/09/04 04:37:05;;;;;;;9.53;4.90;;;;;;;9.06;83.44;97897.55;1639681;86;21434;-83
2021/09/04 04:39:32;;;;;;;10.03;4.50;;;;;;;9.07;83.53;97908.09;1639873;87;21142;-82
2021/09/04 04:42:00;;;;;;;7.40;4.62;;;;;;;9.08;83.11;97900.56;1660705;86;20973;-82
2021/09/04 04:44:27;;;;;;;7.47;4.03;;;;;;;9.14;83.11;97903.95;1652257;87;21103;-82
2021/09/04 04:46:55;;;;;;;6.92;4.25;;;;;;;9.18;82.74;97914.41;1666732;86;20984;-83
2021/09/04 04:49:23;;;;;;;7.42;4.30;;;;;;;9.26;83.02;97914.20;1632765;87;21031;-83
2021/09/04 04:51:49;;;;;;;8.93;4.33;;;;;;;9.28;83.37;97912.41;1626450;87;21023;-83
2021/09/04 04:54:18;;;;;;;5.55;3.77;;;;;;;9.33;83.90;97914.48;1639871;87;21580;-82
2021/09/04 04:56:45;;;;;;;6.20;4.08;;;;;;;9.40;84.22;97912.98;1652710;86;20981;-83
2021/09/04 04:59:12;;;;;;;6.60;3.67;;;;;;;9.42;84.03;97905.42;1653114;86;21047;-83
2021/09/04 05:01:39;;;;;;;7.95;4.10;;;;;;;9.51;83.87;97912.27;1658262;86;20981;-83
2021/09/04 05:04:07;;;;;;;6.53;3.83;;;;;;;9.58;83.77;97904.57;1653403;86;21076;-82
2021/09/04 05:06:35;;;;;;;5.92;3.80;;;;;;;9.66;83.56;97903.03;1626397;88;21054;-82
2021/09/04 05:09:02;;;;;;;5.90;3.90;;;;;;;9.70;83.55;97906.02;1663249;86;21056;-82
2021/09/04 05:11:29;;;;;;;5.53;3.83;;;;;;;9.75;83.15;97903.23;1652996;86;21051;-83
2021/09/04 05:13:55;;;;;;;6.72;3.77;;;;;;;9.80;82.95;97903.97;1652927;87;21019;-82
2021/09/04 05:16:22;;;;;;;6.37;4.17;;;;;;;9.85;82.73;97902.53;1652590;87;21523;-82
2021/09/04 05:18:49;;;;;;;9.28;4.53;;;;;;;9.89;82.62;97900.22;1653006;87;21038;-83
2021/09/04 05:21:17;;;;;;;5.58;4.20;;;;;;;9.95;82.58;97904.00;1652965;87;21027;-83
2021/09/04 05:23:44;;;;;;;6.72;4.35;;;;;;;9.99;82.08;97900.36;1666718;86;20981;-83
2021/09/04 05:26:10;;;;;;;6.80;4.22;;;;;;;9.97;82.05;97904.81;1661549;85;21013;-82
2021/09/04 05:28:38;;;;;;;9.05;4.92;;;;;;;9.97;82.02;97906.61;1661232;86;21080;-83
2021/09/04 05:31:05;;;;;;;9.55;4.75;;;;;;;9.97;81.91;97905.29;1665471;85;20965;-82
2021/09/04 05:33:31;;;;;;;7.30;4.67;;;;;;;9.98;81.74;97901.28;1652729;86;21037;-83
2021/09/04 05:35:58;;;;;;;6.55;4.22;;;;;;;10.02;81.79;97906.88;1664366;86;20981;-82
2021/09/04 05:38:24;;;;;;;9.95;4.90;;;;;;;10.04;82.09;97902.86;1653199;86;21468;-83
2021/09/04 05:40:51;;;;;;;9.73;5.10;;;;;;;10.07;82.01;97901.91;1666893;86;20969;-83
2021/09/04 05:43:17;;;;;;;9.88;5.20;;;;;;;10.10;81.82;97908.00;1653067;87;21054;-84
2021/09/04 05:45:44;;;;;;;8.08;5.30;;;;;;;10.16;82.00;97902.52;1652146;87;20963;-84
2021/09/04 05:48:11;;;;;;;10.08;5.15;;;;;;;10.24;81.94;97910.23;1652918;87;21082;-84
2021/09/04 05:50:37;;;;;;;9.70;5.72;;;;;;;10.29;82.25;97906.99;1650769;87;21058;-83
2021/09/04 05:53:04;;;;;;;10.75;5.85;;;;;;;10.37;81.72;97903.23;1644230;85;21479;-84
2021/09/04 05:55:30;;;;;;;8.63;5.40;;;;;;;10.43;81.65;97902.63;1636626;87;21010;-83
2021/09/04 05:57:57;;;;;;;8.63;5.12;;;;;;;10.50;81.46;97905.95;1656398;86;21080;-84
2021/09/04 06:00:23;;;;;;;9.03;5.37;;;;;;;10.56;81.89;97899.13;1638272;87;21456;-84
2021/09/04 06:02:50;;;;;;;7.33;5.50;;;;;;;10.65;81.63;97907.72;1637110;87;20999;-85
2021/09/04 06:05:17;;;;;;;10.43;4.90;;;;;;;10.73;81.40;97901.73;1653554;86;21044;-84
2021/09/04 06:07:43;;;;;;;8.13;5.05;;;;;;;10.82;81.73;97900.56;1645527;87;21099;-84
2021/09/04 06:10:11;;;;;;;8.45;5.50;;;;;;;10.91;81.36;97901.59;1667021;86;20977;-83
2021/09/04 06:12:38;;;;;;;7.42;5.40;;;;;;;11.00;81.67;97905.72;1652993;86;21086;-83
2021/09/04 06:15:06;;;;;;;8.40;5.90;;;;;;;11.09;81.12;97897.46;1650425;87;21149;-84
2021/09/04 06:17:33;;;;;;;10.53;6.40;;;;;;;11.20;81.04;97901.53;1625278;88;21067;-83
2021/09/04 06:20:00;;;;;;;9.10;6.10;;;;;;;11.30;80.88;97902.95;1646428;86;21014;-83
2021/09/04 06:22:26;;;;;;;9.68;5.60;;;;;;;11.41;80.79;97900.42;1663976;85;22396;-83
2021/09/04 06:24:53;;;;;;;7.55;5.05;;;;;;;11.50;80.41;97900.08;1647598;86;21034;-84
2021/09/04 06:27:20;;;;;;;6.22;5.08;;;;;;;11.58;80.40;97904.66;1606923;88;21069;-84
2021/09/04 06:29:46;;;;;;;9.33;5.65;;;;;;;11.68;80.45;97905.22;1629269;88;21516;-84
2021/09/04 06:32:13;;;;;;;7.12;5.25;;;;;;;11.79;80.52;97901.31;1623417;88;21005;-84
2021/09/04 06:34:40;;;;;;;11.43;5.58;;;;;;;11.86;80.21;97902.36;1609811;88;21077;-83
2021/09/04 06:37:08;;;;;;;11.70;6.85;;;;;;;11.96;79.98;97904.20;1598523;88;21048;-84
2021/09/04 06:39:35;;;;;;;45.65;26.45;;;;;;;12.06;79.58;97899.91;1574104;90;21415;-84
2021/09/04 06:42:01;;;;;;;36.80;22.48;;;;;;;12.18;79.32;97903.91;1592904;87;21036;-83
2021/09/04 06:44:28;;;;;;;19.40;11.70;;;;;;;12.27;79.08;97903.56;1622688;88;21404;-82
2021/09/04 06:46:55;;;;;;;7.40;5.60;;;;;;;12.36;79.01;97903.66;1599348;88;21084;-82
2021/09/04 06:49:22;;;;;;;8.80;6.22;;;;;;;12.45;79.02;97895.33;1604176;88;21093;-82
2021/09/04 06:51:48;;;;;;;7.72;5.53;;;;;;;12.57;78.68;97905.11;1620278;88;21008;-81
2021/09/04 06:54:15;;;;;;;8.78;5.47;;;;;;;12.64;78.52;97900.81;1627432;88;21030;-83
2021/09/04 06:56:41;;;;;;;10.98;5.58;;;;;;;12.75;78.40;97907.50;1630166;88;21019;-83
2021/09/04 06:59:10;;;;;;;8.68;5.50;;;;;;;12.85;78.27;97904.86;1630143;88;21461;-83
2021/09/04 07:01:36;;;;;;;19.40;11.75;;;;;;;12.96;77.96;97908.43;1629345;87;20987;-83
2021/09/04 07:04:03;;;;;;;18.17;9.35;;;;;;;13.05;78.00;97906.70;1596877;89;21009;-83
2021/09/04 07:06:30;;;;;;;8.98;6.37;;;;;;;13.16;77.69;97915.57;1600341;88;21049;-83
2021/09/04 07:08:56;;;;;;;12.58;5.83;;;;;;;13.29;77.50;97913.26;1611211;88;21037;-83
2021/09/04 07:11:23;;;;;;;8.45;5.47;;;;;;;13.40;77.26;97911.94;1622390;88;21045;-81
2021/09/04 07:13:49;;;;;;;9.88;5.75;;;;;;;13.51;76.98;97915.52;1622450;88;21053;-86
2021/09/04 07:16:15;;;;;;;7.35;5.03;;;;;;;13.63;76.85;97919.00;1610400;88;21046;-84
2021/09/04 07:18:42;;;;;;;14.13;5.30;;;;;;;13.73;75.75;97914.12;1622432;88;21078;-84
2021/09/04 07:21:09;;;;;;;8.70;5.25;;;;;;;13.83;75.94;97910.59;1622365;88;21420;-83
2021/09/04 07:23:36;;;;;;;9.43;4.92;;;;;;;13.93;75.97;97907.92;1622387;88;21073;-84
2021/09/04 07:26:06;;;;;;;7.65;4.70;;;;;;;14.03;75.64;97905.69;1602761;88;21104;-83
2021/09/04 07:28:35;;;;;;;8.85;4.65;;;;;;;14.13;74.65;97902.16;1596817;88;21042;-82
2021/09/04 07:31:01;;;;;;;6.83;4.42;;;;;;;14.23;74.78;97910.58;1605259;88;21443;-84
2021/09/04 07:33:28;;;;;;;8.08;4.75;;;;;;;14.33;74.31;97911.88;1608079;88;21029;-83
2021/09/04 07:35:55;;;;;;;7.25;4.42;;;;;;;14.45;73.39;97914.94;1597076;88;21145;-85
2021/09/04 07:38:23;;;;;;;9.05;5.12;;;;;;;14.55;73.87;97914.02;1600704;88;21446;-83
2021/09/04 07:40:51;;;;;;;9.05;4.47;;;;;;;14.65;70.25;97917.52;1597052;89;21026;-84
2021/09/04 07:43:17;;;;;;;9.63;4.28;;;;;;;14.75;71.94;97919.30;1597483;89;21002;-83
2021/09/04 07:45:44;;;;;;;6.20;4.62;;;;;;;14.87;71.72;97919.17;1599120;88;21000;-81
2021/09/04 07:48:11;;;;;;;7.22;4.30;;;;;;;14.98;71.36;97921.78;1597178;89;21066;-83
2021/09/04 07:50:37;;;;;;;5.72;4.17;;;;;;;15.07;71.81;97922.67;1615166;88;21028;-83
2021/09/04 07:53:04;;;;;;;6.50;4.67;;;;;;;15.16;71.71;97920.05;1621080;87;21019;-82
2021/09/04 07:55:30;;;;;;;10.40;4.80;;;;;;;15.23;71.47;97924.12;1616420;88;21005;-84
2021/09/04 07:57:59;;;;;;;6.03;4.25;;;;;;;15.31;71.19;97923.28;1615738;88;20985;-83
2021/09/04 08:00:26;;;;;;;7.10;5.03;;;;;;;15.40;70.71;97923.27;1620575;88;21053;-82
2021/09/04 08:02:53;;;;;;;7.08;4.85;;;;;;;15.50;70.79;97922.81;1617856;88;21030;-84
2021/09/04 08:05:20;;;;;;;8.00;5.05;;;;;;;15.61;70.53;97927.13;1602403;88;21412;-85
2021/09/04 08:07:46;;;;;;;8.20;5.47;;;;;;;15.69;70.04;97918.70;1611841;88;20973;-84
2021/09/04 08:10:13;;;;;;;9.35;4.85;;;;;;;15.76;69.55;97919.26;1621611;88;21121;-83
2021/09/04 08:12:39;;;;;;;6.75;4.83;;;;;;;15.84;69.66;97917.06;1622291;88;21424;-84
2021/09/04 08:15:08;;;;;;;7.20;4.60;;;;;;;15.92;69.53;97919.33;1619178;88;21029;-83
2021/09/04 08:17:34;;;;;;;7.65;4.65;;;;;;;15.98;68.58;97919.03;1620540;88;21085;-83
2021/09/04 08:20:02;;;;;;;5.95;4.30;;;;;;;16.05;67.03;97914.22;1610580;88;21057;-83
2021/09/04 08:22:29;;;;;;;7.75;4.60;;;;;;;16.16;67.50;97919.00;1596789;90;21033;-83
2021/09/04 08:24:56;;;;;;;5.67;4.37;;;;;;;16.30;67.46;97915.57;1596679;90;21017;-84
2021/09/04 08:27:23;;;;;;;6.28;4.35;;;;;;;16.42;66.35;97920.27;1601198;89;21124;-83
2021/09/04 08:29:50;;;;;;;6.10;4.20;;;;;;;16.54;66.45;97916.05;1608858;88;20985;-84
2021/09/04 08:32:16;;;;;;;6.97;4.65;;;;;;;16.63;66.90;97907.98;1608005;88;21081;-83
2021/09/04 08:34:43;;;;;;;7.33;5.00;;;;;;;16.75;63.77;97906.44;1601555;90;21177;-83
2021/09/04 08:37:09;;;;;;;9.38;4.08;;;;;;;16.88;63.40;97909.27;1601619;90;20994;-83
2021/09/04 08:39:35;;;;;;;8.85;4.37;;;;;;;17.02;65.04;97901.78;1601468;89;20997;-83
2021/09/04 08:42:03;;;;;;;9.40;4.87;;;;;;;17.15;63.68;97900.66;1611498;88;21028;-84
2021/09/04 08:44:30;;;;;;;7.25;4.45;;;;;;;17.26;62.36;97896.86;1627293;88;20998;-84
2021/09/04 08:46:57;;;;;;;7.58;4.25;;;;;;;17.37;61.53;97898.05;1627170;88;21049;-83
2021/09/04 08:49:24;;;;;;;6.53;4.90;;;;;;;17.49;59.51;97900.47;1627205;88;20974;-84
2021/09/04 08:51:51;;;;;;;6.12;4.55;;;;;;;17.61;59.39;97891.68;1626763;88;21504;-85
2021/09/04 08:54:17;;;;;;;8.65;4.30;;;;;;;17.69;60.24;97893.92;1627173;88;21053;-84
2021/09/04 08:56:44;;;;;;;7.78;3.98;;;;;;;17.80;60.66;97895.94;1627292;88;21008;-84
2021/09/04 08:59:11;;;;;;;6.50;4.28;;;;;;;17.97;58.88;97902.95;1626982;88;21542;-84
2021/09/04 09:01:46;;;;;;;8.88;4.30;;;;;;;18.13;60.89;97893.98;1619830;88;21639;-84
2021/09/04 09:04:17;;;;;;;6.33;4.08;;;;;;;18.25;59.50;97889.20;1627245;88;21028;-84
2021/09/04 09:06:46;;;;;;;6.00;4.00;;;;;;;18.37;60.14;97882.20;1627252;88;21411;-84
2021/09/04 09:09:23;;;;;;;4.95;3.90;;;;;;;18.47;59.87;97887.36;1627119;88;21493;-83
2021/09/04 09:11:53;;;;;;;4.35;3.83;;;;;;;18.62;57.41;97875.73;1623920;88;21123;-84
2021/09/04 09:14:21;;;;;;;5.72;4.70;;;;;;;18.75;58.37;97878.00;1601098;89;21077;-83
2021/09/04 09:16:58;;;;;;;7.40;4.15;;;;;;;18.86;54.12;97875.47;1601482;89;21037;-83
2021/09/04 09:19:40;;;;;;;7.35;4.25;;;;;;;18.97;54.68;97871.20;1600588;89;21053;-83
2021/09/04 09:22:16;;;;;;;5.65;4.03;;;;;;;19.13;56.94;97868.41;1624970;88;21041;-83
2021/09/04 09:24:43;;;;;;;7.05;4.03;;;;;;;19.30;56.05;97872.64;1627244;88;21038;-84
2021/09/04 09:27:15;;;;;;;8.38;4.15;;;;;;;19.36;56.05;97862.81;1631856;88;21045;-83
2021/09/04 09:29:51;;;;;;;6.40;4.12;;;;;;;19.45;54.42;97864.03;1633366;88;21041;-84
2021/09/04 09:32:17;;;;;;;7.55;4.08;;;;;;;19.52;54.90;97856.42;1609022;88;21092;-83
2021/09/04 09:34:49;;;;;;;5.58;4.30;;;;;;;19.58;55.83;97862.70;1607966;88;21013;-83
2021/09/04 09:37:15;;;;;;;7.53;4.28;;;;;;;19.65;54.53;97865.34;1607737;89;21047;-83
2021/09/04 09:39:44;;;;;;;6.33;4.33;;;;;;;19.75;55.48;97871.42;1607739;89;21020;-83
2021/09/04 09:42:13;;;;;;;5.42;3.87;;;;;;;19.82;51.77;97861.98;1613482;88;21013;-83
2021/09/04 09:44:41;;;;;;;8.08;4.78;;;;;;;19.96;53.22;97856.96;1633576;88;20986;-83
2021/09/04 09:47:12;;;;;;;8.48;4.10;;;;;;;19.96;48.96;97847.55;1633757;88;21056;-83
2021/09/04 09:49:45;;;;;;;7.05;4.53;;;;;;;20.06;51.11;97842.42;1628477;88;21041;-83
2021/09/04 09:52:15;;;;;;;5.22;3.80;;;;;;;20.22;52.24;97842.16;1607785;89;21088;-83
2021/09/04 09:54:45;;;;;;;8.58;4.30;;;;;;;20.36;51.70;97832.23;1607633;89;21088;-83
2021/09/04 09:57:13;;;;;;;8.05;4.33;;;;;;;20.51;52.57;97828.93;1607545;89;21099;-83
2021/09/04 09:59:44;;;;;;;4.35;3.45;;;;;;;20.69;51.00;97828.89;1607767;89;21029;-83
2021/09/04 10:02:14;;;;;;;5.20;3.62;;;;;;;20.77;48.51;97827.48;1609116;87;21037;-84
2021/09/04 10:04:42;;;;;;;5.47;3.65;;;;;;;20.90;49.68;97819.38;1607564;89;21028;-83
2021/09/04 10:07:09;;;;;;;5.33;3.70;;;;;;;21.07;50.38;97816.75;1607692;89;21028;-84
2021/09/04 10:09:38;;;;;;;5.90;3.75;;;;;;;21.22;50.88;97815.58;1607740;88;21020;-83
2021/09/04 10:12:08;;;;;;;6.47;4.20;;;;;;;21.33;50.48;97814.77;1607623;89;21435;-84
2021/09/04 10:14:36;;;;;;;7.97;5.00;;;;;;;21.36;49.54;97819.93;1633216;88;21001;-83
2021/09/04 10:17:05;;;;;;;6.62;4.60;;;;;;;21.37;50.19;97818.08;1633687;88;21036;-84
2021/09/04 10:19:35;;;;;;;5.83;3.87;;;;;;;21.40;49.51;97819.20;1633466;88;21021;-83
2021/09/04 10:22:08;;;;;;;4.83;3.80;;;;;;;21.48;49.55;97819.95;1633689;88;21427;-83
2021/09/04 10:24:53;;;;;;;6.75;4.90;;;;;;;21.56;48.45;97813.48;1618781;88;21024;-84
2021/09/04 10:27:36;;;;;;;7.97;4.80;;;;;;;21.58;49.41;97811.98;1609191;88;21017;-84
2021/09/04 10:30:34;;;;;;;7.05;4.55;;;;;;;21.57;49.10;97812.97;1609000;88;21080;-84
2021/09/04 10:33:09;;;;;;;5.87;4.50;;;;;;;21.54;49.70;97810.03;1633428;88;21025;-83
2021/09/04 10:35:52;;;;;;;4.75;4.25;;;;;;;21.50;49.53;97815.28;1626378;87;21036;-83
2021/09/04 10:38:24;;;;;;;6.83;4.20;;;;;;;21.62;49.40;97804.91;1622200;88;21447;-83
2021/09/04 10:41:14;;;;;;;5.50;4.12;;;;;;;22.27;48.53;97799.42;1607764;88;21009;-83
2021/09/04 10:43:47;;;;;;;5.50;3.75;;;;;;;24.12;46.49;97808.33;1607919;88;20969;-84
2021/09/04 10:46:16;;;;;;;7.95;4.40;;;;;;;24.12;46.49;97808.33;1608774;88;21045;-84
2021/09/04 10:48:45;;;;;;;4.80;3.95;;;;;;;25.22;44.89;97801.27;1616962;88;21061;-85
2021/09/04 10:51:12;;;;;;;4.80;3.87;;;;;;;25.17;43.27;97804.42;1632176;88;21041;-83
2021/09/04 10:53:45;;;;;;;6.37;3.92;;;;;;;25.01;44.23;97803.14;1614656;88;21005;-84
2021/09/04 10:56:31;;;;;;;5.53;4.05;;;;;;;26.00;42.18;97804.37;1607725;89;21088;-83
2021/09/04 10:58:58;;;;;;;6.35;3.75;;;;;;;27.06;40.48;97805.47;1607617;89;21076;-83
2021/09/04 11:01:39;;;;;;;5.55;3.98;;;;;;;27.23;38.66;97805.95;1622548;88;21013;-83
2021/09/04 11:04:06;;;;;;;5.40;4.03;;;;;;;26.76;40.16;97805.63;1610289;88;20965;-83
2021/09/04 11:06:32;;;;;;;4.58;3.67;;;;;;;26.62;40.97;97803.78;1607592;89;21076;-84
2021/09/04 11:08:59;;;;;;;4.95;3.77;;;;;;;27.91;40.74;97799.48;1607655;89;21076;-84
2021/09/04 11:11:36;;;;;;;4.30;3.70;;;;;;;28.93;36.56;97796.52;1607642;89;21048;-83
2021/09/04 11:14:19;;;;;;;4.10;2.87;;;;;;;29.45;35.99;97794.50;1608265;88;21445;-84
2021/09/04 11:16:54;;;;;;;5.22;3.12;;;;;;;30.24;31.68;97793.53;1607721;89;21028;-84
2021/09/04 11:19:33;;;;;;;3.83;3.52;;;;;;;29.32;29.39;97794.16;1607710;89;21060;-84
2021/09/04 11:22:06;;;;;;;4.95;3.30;;;;;;;28.35;32.77;97802.30;1607871;88;20990;-83
2021/09/04 11:24:40;;;;;;;4.97;3.75;;;;;;;27.69;35.00;97811.76;1607723;89;21017;-83
2021/09/04 11:27:16;;;;;;;4.35;3.95;;;;;;;26.97;35.54;97810.81;1602267;89;21014;-83
2021/09/04 11:29:48;;;;;;;6.47;4.05;;;;;;;26.36;36.02;97810.44;1597285;88;21109;-83
2021/09/04 11:32:17;;;;;;;4.95;4.05;;;;;;;25.92;36.56;97810.54;1619946;88;21471;-84
2021/09/04 11:35:01;;;;;;;7.10;4.00;;;;;;;25.48;37.81;97816.45;1596872;89;21029;-84
2021/09/04 11:37:41;;;;;;;6.35;4.30;;;;;;;24.93;38.55;97808.41;1596893;90;21029;-84
2021/09/04 11:40:14;;;;;;;6.85;4.17;;;;;;;24.61;39.93;97802.20;1597081;88;21478;-84
2021/09/04 11:42:46;;;;;;;5.10;3.95;;;;;;;24.35;40.57;97799.14;1596993;90;21029;-83